sensor_id;sensor_type;location;lat;lon;timestamp;pressure;altitude;pressure_sealevel;temperature;humidity
80482;BME280;69797;43.864;21.410;2023-12-20T00:01:57;100267.06;;;2.44;86.58
80482;BME280;69797;43.864;21.410;2023-12-20T00:04:24;100264.34;;;2.35;85.75
80482;BME280;69797;43.864;21.410;2023-12-20T00:06:50;100302.56;;;2.40;85.30
80482;BME280;69797;43.864;21.410;2023-12-20T00:09:18;100269.22;;;2.15;85.51
80482;BME280;69797;43.864;21.410;2023-12-20T00:11:45;100279.72;;;2.19;85.81
80482;BME280;69797;43.864;21.410;2023-12-20T00:14:12;100271.22;;;2.13;86.05
80482;BME280;69797;43.864;21.410;2023-12-20T00:16:39;100277.66;;;2.12;85.84
80482;BME280;69797;43.864;21.410;2023-12-20T00:19:06;100272.03;;;1.98;86.32
80482;BME280;69797;43.864;21.410;2023-12-20T00:21:34;100253.41;;;1.78;86.65
80482;BME280;69797;43.864;21.410;2023-12-20T00:24:01;100260.69;;;1.86;86.53
80482;BME280;69797;43.864;21.410;2023-12-20T00:26:28;100259.50;;;1.80;87.63
80482;BME280;69797;43.864;21.410;2023-12-20T00:28:55;100252.41;;;1.79;87.69
80482;BME280;69797;43.864;21.410;2023-12-20T00:31:21;100246.50;;;1.76;87.47
80482;BME280;69797;43.864;21.410;2023-12-20T00:33:48;100262.22;;;1.97;86.75
80482;BME280;69797;43.864;21.410;2023-12-20T00:36:16;100261.25;;;2.14;86.23
80482;BME280;69797;43.864;21.410;2023-12-20T00:38:42;100228.97;;;1.96;84.30
80482;BME280;69797;43.864;21.410;2023-12-20T00:41:09;100243.31;;;1.88;84.44
80482;BME280;69797;43.864;21.410;2023-12-20T00:43:36;100223.66;;;1.70;85.92
80482;BME280;69797;43.864;21.410;2023-12-20T00:46:03;100248.50;;;1.82;86.44
80482;BME280;69797;43.864;21.410;2023-12-20T00:48:30;100244.97;;;1.81;86.16
80482;BME280;69797;43.864;21.410;2023-12-20T00:50:59;100221.47;;;1.65;87.03
80482;BME280;69797;43.864;21.410;2023-12-20T00:53:26;100235.31;;;1.79;86.68
80482;BME280;69797;43.864;21.410;2023-12-20T00:55:53;100241.13;;;1.92;87.20
80482;BME280;69797;43.864;21.410;2023-12-20T00:58:19;100221.34;;;1.83;86.53
80482;BME280;69797;43.864;21.410;2023-12-20T01:00:46;100234.34;;;1.88;87.11
80482;BME280;69797;43.864;21.410;2023-12-20T01:03:13;100220.66;;;1.89;87.83
80482;BME280;69797;43.864;21.410;2023-12-20T01:05:42;100204.13;;;1.76;88.31
80482;BME280;69797;43.864;21.410;2023-12-20T01:08:08;100202.06;;;1.78;88.79
80482;BME280;69797;43.864;21.410;2023-12-20T01:10:35;100207.16;;;1.81;87.17
80482;BME280;69797;43.864;21.410;2023-12-20T01:13:02;100212.41;;;1.83;87.63
80482;BME280;69797;43.864;21.410;2023-12-20T01:15:29;100216.63;;;1.85;87.28
80482;BME280;69797;43.864;21.410;2023-12-20T01:17:56;100198.72;;;1.76;86.07
80482;BME280;69797;43.864;21.410;2023-12-20T01:20:25;100203.09;;;1.77;86.53
80482;BME280;69797;43.864;21.410;2023-12-20T01:22:52;100198.66;;;1.68;86.86
80482;BME280;69797;43.864;21.410;2023-12-20T01:25:19;100196.16;;;1.66;87.87
80482;BME280;69797;43.864;21.410;2023-12-20T01:27:46;100190.41;;;1.70;87.66
80482;BME280;69797;43.864;21.410;2023-12-20T01:30:14;100189.59;;;1.69;87.50
80482;BME280;69797;43.864;21.410;2023-12-20T01:32:41;100188.75;;;1.68;88.08
80482;BME280;69797;43.864;21.410;2023-12-20T01:35:08;100186.56;;;1.72;88.05
80482;BME280;69797;43.864;21.410;2023-12-20T01:37:35;100176.06;;;1.69;87.19
80482;BME280;69797;43.864;21.410;2023-12-20T01:40:02;100165.94;;;1.63;86.99
80482;BME280;69797;43.864;21.410;2023-12-20T01:42:29;100176.91;;;1.61;86.10
80482;BME280;69797;43.864;21.410;2023-12-20T01:44:56;100167.56;;;1.48;87.41
80482;BME280;69797;43.864;21.410;2023-12-20T01:47:23;100156.22;;;1.36;87.48
80482;BME280;69797;43.864;21.410;2023-12-20T01:49:50;100157.94;;;1.37;88.02
80482;BME280;69797;43.864;21.410;2023-12-20T01:52:18;100148.31;;;1.42;88.62
80482;BME280;69797;43.864;21.410;2023-12-20T01:54:46;100149.53;;;1.48;88.68
80482;BME280;69797;43.864;21.410;2023-12-20T01:57:14;100150.22;;;1.58;86.86
80482;BME280;69797;43.864;21.410;2023-12-20T01:59:41;100153.06;;;1.57;86.37
80482;BME280;69797;43.864;21.410;2023-12-20T02:02:08;100155.44;;;1.52;87.14
80482;BME280;69797;43.864;21.410;2023-12-20T02:04:35;100138.72;;;1.48;86.93
80482;BME280;69797;43.864;21.410;2023-12-20T02:07:02;100129.09;;;1.46;87.72
80482;BME280;69797;43.864;21.410;2023-12-20T02:09:30;100123.03;;;1.52;88.63
80482;BME280;69797;43.864;21.410;2023-12-20T02:11:57;100114.63;;;1.55;89.33
80482;BME280;69797;43.864;21.410;2023-12-20T02:14:25;100095.53;;;1.48;87.61
80482;BME280;69797;43.864;21.410;2023-12-20T02:16:52;100104.47;;;1.49;87.71
80482;BME280;69797;43.864;21.410;2023-12-20T02:19:19;100103.63;;;1.40;87.62
80482;BME280;69797;43.864;21.410;2023-12-20T02:21:47;100091.09;;;1.31;87.93
80482;BME280;69797;43.864;21.410;2023-12-20T02:24:13;100099.19;;;1.23;89.12
80482;BME280;69797;43.864;21.410;2023-12-20T02:26:40;100097.66;;;1.20;88.33
80482;BME280;69797;43.864;21.410;2023-12-20T02:29:12;100078.22;;;1.08;88.74
80482;BME280;69797;43.864;21.410;2023-12-20T02:31:39;100090.91;;;1.24;89.09
80482;BME280;69797;43.864;21.410;2023-12-20T02:34:06;100092.75;;;1.24;89.44
80482;BME280;69797;43.864;21.410;2023-12-20T02:36:33;100095.13;;;1.27;89.89
80482;BME280;69797;43.864;21.410;2023-12-20T02:38:59;100069.81;;;1.19;89.72
80482;BME280;69797;43.864;21.410;2023-12-20T02:41:26;100084.34;;;1.27;89.62
80482;BME280;69797;43.864;21.410;2023-12-20T02:43:53;100057.16;;;1.20;88.64
80482;BME280;69797;43.864;21.410;2023-12-20T02:46:19;100072.53;;;1.28;89.30
80482;BME280;69797;43.864;21.410;2023-12-20T02:48:46;100065.25;;;1.20;88.55
80482;BME280;69797;43.864;21.410;2023-12-20T02:51:14;100065.44;;;1.18;89.31
80482;BME280;69797;43.864;21.410;2023-12-20T02:53:41;100058.19;;;1.19;88.61
80482;BME280;69797;43.864;21.410;2023-12-20T02:56:07;100055.50;;;1.19;89.75
80482;BME280;69797;43.864;21.410;2023-12-20T02:58:34;100053.97;;;1.16;88.71
80482;BME280;69797;43.864;21.410;2023-12-20T03:01:01;100046.56;;;1.18;89.04
80482;BME280;69797;43.864;21.410;2023-12-20T03:03:28;100055.81;;;1.24;88.53
80482;BME280;69797;43.864;21.410;2023-12-20T03:05:55;100047.72;;;1.16;90.00
80482;BME280;69797;43.864;21.410;2023-12-20T03:08:22;100049.91;;;1.20;88.99
80482;BME280;69797;43.864;21.410;2023-12-20T03:10:48;100044.34;;;1.14;89.83
80482;BME280;69797;43.864;21.410;2023-12-20T03:13:15;100028.94;;;0.98;90.50
80482;BME280;69797;43.864;21.410;2023-12-20T03:15:42;100030.50;;;1.01;90.73
80482;BME280;69797;43.864;21.410;2023-12-20T03:18:09;100016.44;;;0.89;90.87
80482;BME280;69797;43.864;21.410;2023-12-20T03:20:36;100022.53;;;0.99;91.03
80482;BME280;69797;43.864;21.410;2023-12-20T03:23:03;100031.00;;;1.04;90.77
80482;BME280;69797;43.864;21.410;2023-12-20T03:25:30;100036.53;;;1.03;91.52
80482;BME280;69797;43.864;21.410;2023-12-20T03:27:57;100027.63;;;1.02;90.45
80482;BME280;69797;43.864;21.410;2023-12-20T03:30:24;100025.25;;;0.99;90.79
80482;BME280;69797;43.864;21.410;2023-12-20T03:32:51;100023.25;;;1.01;90.18
80482;BME280;69797;43.864;21.410;2023-12-20T03:35:17;100018.00;;;1.00;90.68
80482;BME280;69797;43.864;21.410;2023-12-20T03:37:44;100006.50;;;0.89;90.63
80482;BME280;69797;43.864;21.410;2023-12-20T03:40:11;99996.72;;;0.88;90.89
80482;BME280;69797;43.864;21.410;2023-12-20T03:42:38;100007.56;;;1.05;90.19
80482;BME280;69797;43.864;21.410;2023-12-20T03:45:05;100001.84;;;1.08;90.23
80482;BME280;69797;43.864;21.410;2023-12-20T03:47:32;99986.69;;;1.15;90.10
80482;BME280;69797;43.864;21.410;2023-12-20T03:49:59;99993.94;;;1.23;89.51
80482;BME280;69797;43.864;21.410;2023-12-20T03:52:26;100005.44;;;1.33;89.59
80482;BME280;69797;43.864;21.410;2023-12-20T03:54:53;100013.00;;;1.46;89.17
80482;BME280;69797;43.864;21.410;2023-12-20T03:57:20;99995.66;;;1.40;89.75
80482;BME280;69797;43.864;21.410;2023-12-20T03:59:47;99988.72;;;1.29;89.59
80482;BME280;69797;43.864;21.410;2023-12-20T04:02:13;100008.13;;;1.33;89.31
80482;BME280;69797;43.864;21.410;2023-12-20T04:04:40;99999.34;;;1.23;89.27
80482;BME280;69797;43.864;21.410;2023-12-20T04:07:07;99998.31;;;1.32;89.08
80482;BME280;69797;43.864;21.410;2023-12-20T04:09:34;99992.78;;;1.33;89.41
80482;BME280;69797;43.864;21.410;2023-12-20T04:12:01;100003.38;;;1.43;88.90
80482;BME280;69797;43.864;21.410;2023-12-20T04:14:27;99987.88;;;1.37;88.86
80482;BME280;69797;43.864;21.410;2023-12-20T04:16:54;100001.88;;;1.49;88.87
80482;BME280;69797;43.864;21.410;2023-12-20T04:19:21;99999.38;;;1.47;88.69
80482;BME280;69797;43.864;21.410;2023-12-20T04:21:48;99985.19;;;1.37;88.30
80482;BME280;69797;43.864;21.410;2023-12-20T04:24:15;99995.66;;;1.40;89.04
80482;BME280;69797;43.864;21.410;2023-12-20T04:26:42;99992.25;;;1.38;90.09
80482;BME280;69797;43.864;21.410;2023-12-20T04:29:08;99970.34;;;1.33;90.17
80482;BME280;69797;43.864;21.410;2023-12-20T04:31:35;99982.66;;;1.43;90.09
80482;BME280;69797;43.864;21.410;2023-12-20T04:34:02;99976.41;;;1.51;89.43
80482;BME280;69797;43.864;21.410;2023-12-20T04:36:29;99980.97;;;1.67;89.62
80482;BME280;69797;43.864;21.410;2023-12-20T04:38:56;99959.72;;;1.72;87.96
80482;BME280;69797;43.864;21.410;2023-12-20T04:41:23;99965.09;;;1.80;87.98
80482;BME280;69797;43.864;21.410;2023-12-20T04:43:50;99952.41;;;1.81;86.35
80482;BME280;69797;43.864;21.410;2023-12-20T04:46:17;99975.72;;;1.90;86.80
80482;BME280;69797;43.864;21.410;2023-12-20T04:48:44;99969.81;;;1.86;86.74
80482;BME280;69797;43.864;21.410;2023-12-20T04:51:11;99962.22;;;1.74;87.09
80482;BME280;69797;43.864;21.410;2023-12-20T04:53:38;99962.25;;;1.65;87.28
80482;BME280;69797;43.864;21.410;2023-12-20T04:56:05;99956.34;;;1.62;87.86
80482;BME280;69797;43.864;21.410;2023-12-20T04:58:32;99948.56;;;1.59;88.34
80482;BME280;69797;43.864;21.410;2023-12-20T05:00:59;99946.72;;;1.51;88.57
80482;BME280;69797;43.864;21.410;2023-12-20T05:03:26;99940.66;;;1.41;87.57
80482;BME280;69797;43.864;21.410;2023-12-20T05:05:52;99943.69;;;1.30;88.38
80482;BME280;69797;43.864;21.410;2023-12-20T05:08:19;99935.75;;;1.12;88.58
80482;BME280;69797;43.864;21.410;2023-12-20T05:10:46;99952.41;;;1.07;88.72
80482;BME280;69797;43.864;21.410;2023-12-20T05:13:13;99933.84;;;0.96;89.40
80482;BME280;69797;43.864;21.410;2023-12-20T05:15:40;99932.50;;;0.92;90.23
80482;BME280;69797;43.864;21.410;2023-12-20T05:18:07;99929.16;;;0.90;89.89
80482;BME280;69797;43.864;21.410;2023-12-20T05:20:34;99923.25;;;0.86;89.84
80482;BME280;69797;43.864;21.410;2023-12-20T05:23:01;99925.06;;;0.86;90.02
80482;BME280;69797;43.864;21.410;2023-12-20T05:25:28;99942.97;;;0.95;90.58
80482;BME280;69797;43.864;21.410;2023-12-20T05:27:54;99936.75;;;0.94;90.18
80482;BME280;69797;43.864;21.410;2023-12-20T05:30:22;99926.28;;;1.00;90.57
80482;BME280;69797;43.864;21.410;2023-12-20T05:32:49;99933.03;;;1.04;90.36
80482;BME280;69797;43.864;21.410;2023-12-20T05:35:16;99922.91;;;1.06;90.51
80482;BME280;69797;43.864;21.410;2023-12-20T05:37:44;99930.34;;;1.12;90.22
80482;BME280;69797;43.864;21.410;2023-12-20T05:40:11;99921.06;;;1.14;89.60
80482;BME280;69797;43.864;21.410;2023-12-20T05:42:38;99900.34;;;1.15;89.92
80482;BME280;69797;43.864;21.410;2023-12-20T05:45:05;99929.69;;;1.34;89.78
80482;BME280;69797;43.864;21.410;2023-12-20T05:47:32;99927.81;;;1.43;89.61
80482;BME280;69797;43.864;21.410;2023-12-20T05:49:59;99915.84;;;1.46;89.06
80482;BME280;69797;43.864;21.410;2023-12-20T05:52:26;99920.03;;;1.56;89.05
80482;BME280;69797;43.864;21.410;2023-12-20T05:54:53;99906.53;;;1.56;88.65
80482;BME280;69797;43.864;21.410;2023-12-20T05:57:19;99897.78;;;1.62;89.15
80482;BME280;69797;43.864;21.410;2023-12-20T05:59:46;99903.66;;;1.74;88.72
80482;BME280;69797;43.864;21.410;2023-12-20T06:02:13;99895.91;;;1.79;88.31
80482;BME280;69797;43.864;21.410;2023-12-20T06:04:42;99896.03;;;1.86;88.13
80482;BME280;69797;43.864;21.410;2023-12-20T06:07:11;99873.94;;;1.74;87.44
80482;BME280;69797;43.864;21.410;2023-12-20T06:09:39;99899.38;;;1.96;87.38
80482;BME280;69797;43.864;21.410;2023-12-20T06:12:07;99869.38;;;1.83;87.19
80482;BME280;69797;43.864;21.410;2023-12-20T06:14:34;99905.22;;;2.16;86.59
80482;BME280;69797;43.864;21.410;2023-12-20T06:17:01;99895.91;;;2.27;86.77
80482;BME280;69797;43.864;21.410;2023-12-20T06:19:28;99882.34;;;2.35;86.42
80482;BME280;69797;43.864;21.410;2023-12-20T06:21:55;99879.50;;;2.59;91.78
80482;BME280;69797;43.864;21.410;2023-12-20T06:24:22;99886.25;;;2.86;91.20
80482;BME280;69797;43.864;21.410;2023-12-20T06:26:49;99882.88;;;3.07;90.60
80482;BME280;69797;43.864;21.410;2023-12-20T06:29:16;99857.97;;;3.35;87.26
80482;BME280;69797;43.864;21.410;2023-12-20T06:31:43;99876.66;;;4.48;97.77
80482;BME280;69797;43.864;21.410;2023-12-20T06:34:10;99872.38;;;4.97;80.52
80482;BME280;69797;43.864;21.410;2023-12-20T06:36:37;99869.88;;;5.66;95.64
80482;BME280;69797;43.864;21.410;2023-12-20T06:39:03;99860.09;;;6.48;76.88
80482;BME280;69797;43.864;21.410;2023-12-20T06:41:31;99857.81;;;6.58;73.35
80482;BME280;69797;43.864;21.410;2023-12-20T06:43:58;99857.06;;;6.78;71.27
80482;BME280;69797;43.864;21.410;2023-12-20T06:46:25;99861.50;;;6.99;72.29
80482;BME280;69797;43.864;21.410;2023-12-20T06:48:51;99867.38;;;7.15;70.74
80482;BME280;69797;43.864;21.410;2023-12-20T06:51:18;99846.22;;;7.37;67.67
80482;BME280;69797;43.864;21.410;2023-12-20T06:53:46;99850.63;;;7.52;68.08
80482;BME280;69797;43.864;21.410;2023-12-20T06:56:13;99860.06;;;7.29;69.44
80482;BME280;69797;43.864;21.410;2023-12-20T06:58:44;99841.41;;;7.13;69.58
80482;BME280;69797;43.864;21.410;2023-12-20T07:01:12;99849.78;;;7.78;70.15
80482;BME280;69797;43.864;21.410;2023-12-20T07:03:39;99853.53;;;8.61;67.54
80482;BME280;69797;43.864;21.410;2023-12-20T07:06:07;99859.31;;;9.42;66.95
80482;BME280;69797;43.864;21.410;2023-12-20T07:08:34;99836.78;;;9.46;63.05
80482;BME280;69797;43.864;21.410;2023-12-20T07:11:01;99851.78;;;9.37;61.13
80482;BME280;69797;43.864;21.410;2023-12-20T07:13:29;99832.63;;;9.12;62.82
80482;BME280;69797;43.864;21.410;2023-12-20T07:15:56;99850.94;;;9.11;62.47
80482;BME280;69797;43.864;21.410;2023-12-20T07:18:23;99844.31;;;8.94;62.75
80482;BME280;69797;43.864;21.410;2023-12-20T07:20:50;99831.53;;;8.88;63.39
80482;BME280;69797;43.864;21.410;2023-12-20T07:23:17;99826.47;;;8.92;63.47
80482;BME280;69797;43.864;21.410;2023-12-20T07:25:46;99848.31;;;9.23;62.13
80482;BME280;69797;43.864;21.410;2023-12-20T07:28:13;99850.31;;;9.34;62.03
80482;BME280;69797;43.864;21.410;2023-12-20T07:30:39;99833.13;;;9.27;62.54
80482;BME280;69797;43.864;21.410;2023-12-20T07:33:07;99815.16;;;9.13;62.63
80482;BME280;69797;43.864;21.410;2023-12-20T07:35:36;99832.16;;;9.22;63.09
80482;BME280;69797;43.864;21.410;2023-12-20T07:38:03;99823.38;;;9.13;62.97
80482;BME280;69797;43.864;21.410;2023-12-20T07:40:30;99820.09;;;9.04;62.70
80482;BME280;69797;43.864;21.410;2023-12-20T07:42:57;99806.78;;;8.83;62.18
80482;BME280;69797;43.864;21.410;2023-12-20T07:45:24;99823.03;;;8.71;62.54
80482;BME280;69797;43.864;21.410;2023-12-20T07:47:51;99811.53;;;8.56;62.05
80482;BME280;69797;43.864;21.410;2023-12-20T07:50:18;99798.19;;;8.41;64.39
80482;BME280;69797;43.864;21.410;2023-12-20T07:52:45;99810.22;;;8.72;81.54
80482;BME280;69797;43.864;21.410;2023-12-20T07:55:12;99808.75;;;9.76;78.91
80482;BME280;69797;43.864;21.410;2023-12-20T07:57:39;99795.16;;;10.43;59.82
80482;BME280;69797;43.864;21.410;2023-12-20T08:00:06;99797.44;;;10.27;58.49
80482;BME280;69797;43.864;21.410;2023-12-20T08:02:33;99796.28;;;9.80;58.32
80482;BME280;69797;43.864;21.410;2023-12-20T08:05:00;99793.41;;;9.31;60.72
80482;BME280;69797;43.864;21.410;2023-12-20T08:07:26;99783.47;;;8.80;61.63
80482;BME280;69797;43.864;21.410;2023-12-20T08:09:53;99780.50;;;8.50;61.96
80482;BME280;69797;43.864;21.410;2023-12-20T08:12:22;99782.47;;;8.30;63.04
80482;BME280;69797;43.864;21.410;2023-12-20T08:14:49;99774.41;;;8.03;63.23
80482;BME280;69797;43.864;21.410;2023-12-20T08:17:16;99795.16;;;8.04;64.86
80482;BME280;69797;43.864;21.410;2023-12-20T08:19:44;99779.88;;;7.97;65.02
80482;BME280;69797;43.864;21.410;2023-12-20T08:22:11;99793.09;;;8.00;63.72
80482;BME280;69797;43.864;21.410;2023-12-20T08:24:38;99773.38;;;7.91;64.86
80482;BME280;69797;43.864;21.410;2023-12-20T08:27:05;99780.47;;;7.99;66.14
80482;BME280;69797;43.864;21.410;2023-12-20T08:29:32;99759.81;;;7.78;65.34
80482;BME280;69797;43.864;21.410;2023-12-20T08:31:59;99770.69;;;7.84;66.05
80482;BME280;69797;43.864;21.410;2023-12-20T08:34:26;99759.78;;;7.84;65.93
80482;BME280;69797;43.864;21.410;2023-12-20T08:36:53;99758.31;;;7.82;66.44
80482;BME280;69797;43.864;21.410;2023-12-20T08:39:20;99761.84;;;7.96;64.86
80482;BME280;69797;43.864;21.410;2023-12-20T08:41:47;99761.84;;;7.96;65.84
80482;BME280;69797;43.864;21.410;2023-12-20T08:44:14;99729.59;;;7.79;66.46
80482;BME280;69797;43.864;21.410;2023-12-20T08:46:41;99757.22;;;7.96;66.01
80482;BME280;69797;43.864;21.410;2023-12-20T08:49:07;99756.41;;;7.89;66.95
80482;BME280;69797;43.864;21.410;2023-12-20T08:51:36;99738.75;;;7.91;65.81
80482;BME280;69797;43.864;21.410;2023-12-20T08:54:06;99743.31;;;8.11;66.07
80482;BME280;69797;43.864;21.410;2023-12-20T08:56:34;99728.19;;;8.15;65.70
80482;BME280;69797;43.864;21.410;2023-12-20T08:59:01;99752.41;;;8.43;64.78
80482;BME280;69797;43.864;21.410;2023-12-20T09:01:28;99746.03;;;8.56;64.42
80482;BME280;69797;43.864;21.410;2023-12-20T09:03:55;99739.75;;;8.80;64.32
80482;BME280;69797;43.864;21.410;2023-12-20T09:06:22;99744.41;;;9.05;62.86
80482;BME280;69797;43.864;21.410;2023-12-20T09:08:49;99735.81;;;9.26;62.94
80482;BME280;69797;43.864;21.410;2023-12-20T09:11:15;99731.91;;;9.77;76.95
80482;BME280;69797;43.864;21.410;2023-12-20T09:13:44;99715.16;;;10.83;61.46
80482;BME280;69797;43.864;21.410;2023-12-20T09:16:11;99711.00;;;11.27;59.14
80482;BME280;69797;43.864;21.410;2023-12-20T09:18:39;99714.47;;;11.34;58.31
80482;BME280;69797;43.864;21.410;2023-12-20T09:21:06;99701.22;;;11.31;59.53
80482;BME280;69797;43.864;21.410;2023-12-20T09:23:33;99695.28;;;11.22;58.76
80482;BME280;69797;43.864;21.410;2023-12-20T09:26:00;99687.06;;;11.22;59.08
80482;BME280;69797;43.864;21.410;2023-12-20T09:28:26;99685.59;;;11.32;60.35
80482;BME280;69797;43.864;21.410;2023-12-20T09:30:53;99678.00;;;11.34;59.80
80482;BME280;69797;43.864;21.410;2023-12-20T09:33:20;99670.84;;;11.33;58.80
80482;BME280;69797;43.864;21.410;2023-12-20T09:35:47;99659.06;;;11.32;65.47
80482;BME280;69797;43.864;21.410;2023-12-20T09:38:14;99672.13;;;11.42;58.13
80482;BME280;69797;43.864;21.410;2023-12-20T09:40:42;99668.34;;;11.43;61.75
80482;BME280;69797;43.864;21.410;2023-12-20T09:43:11;99676.91;;;11.58;60.67
80482;BME280;69797;43.864;21.410;2023-12-20T09:45:40;99661.41;;;11.52;58.12
80482;BME280;69797;43.864;21.410;2023-12-20T09:48:10;99659.13;;;11.49;58.53
80482;BME280;69797;43.864;21.410;2023-12-20T09:50:38;99643.97;;;11.58;59.56
80482;BME280;69797;43.864;21.410;2023-12-20T09:53:08;99650.25;;;11.70;58.25
80482;BME280;69797;43.864;21.410;2023-12-20T09:55:36;99649.19;;;11.71;56.43
80482;BME280;69797;43.864;21.410;2023-12-20T09:58:03;99640.94;;;11.83;57.79
80482;BME280;69797;43.864;21.410;2023-12-20T10:00:30;99623.97;;;11.98;56.82
80482;BME280;69797;43.864;21.410;2023-12-20T10:02:58;99634.38;;;12.41;57.79
80482;BME280;69797;43.864;21.410;2023-12-20T10:05:30;99650.22;;;12.68;56.69
80482;BME280;69797;43.864;21.410;2023-12-20T10:07:58;99633.16;;;12.66;54.16
80482;BME280;69797;43.864;21.410;2023-12-20T10:10:26;99636.66;;;12.61;53.94
80482;BME280;69797;43.864;21.410;2023-12-20T10:13:10;99638.47;;;12.56;54.99
80482;BME280;69797;43.864;21.410;2023-12-20T10:15:38;99618.63;;;12.37;54.72
80482;BME280;69797;43.864;21.410;2023-12-20T10:18:05;99601.09;;;12.09;55.27
80482;BME280;69797;43.864;21.410;2023-12-20T10:20:33;99609.28;;;11.92;58.36
80482;BME280;69797;43.864;21.410;2023-12-20T10:23:00;99601.34;;;11.79;55.23
80482;BME280;69797;43.864;21.410;2023-12-20T10:25:28;99606.00;;;11.67;56.52
80482;BME280;69797;43.864;21.410;2023-12-20T10:28:12;99580.94;;;11.46;57.24
80482;BME280;69797;43.864;21.410;2023-12-20T10:30:40;99593.59;;;11.36;56.71
80482;BME280;69797;43.864;21.410;2023-12-20T10:33:07;99585.50;;;11.17;56.32
80482;BME280;69797;43.864;21.410;2023-12-20T10:35:35;99600.59;;;11.32;57.29
80482;BME280;69797;43.864;21.410;2023-12-20T10:38:06;99578.13;;;11.18;57.87
80482;BME280;69797;43.864;21.410;2023-12-20T10:40:36;99574.56;;;11.05;57.16
80482;BME280;69797;43.864;21.410;2023-12-20T10:43:04;99576.56;;;11.10;55.64
80482;BME280;69797;43.864;21.410;2023-12-20T10:45:32;99565.25;;;11.07;56.60
80482;BME280;69797;43.864;21.410;2023-12-20T10:47:59;99551.91;;;10.98;57.13
80482;BME280;69797;43.864;21.410;2023-12-20T10:50:29;99572.16;;;11.09;57.02
80482;BME280;69797;43.864;21.410;2023-12-20T10:52:57;99577.66;;;11.09;56.87
80482;BME280;69797;43.864;21.410;2023-12-20T10:55:25;99564.41;;;11.18;57.72
80482;BME280;69797;43.864;21.410;2023-12-20T10:58:09;99572.13;;;11.33;56.83
80482;BME280;69797;43.864;21.410;2023-12-20T11:00:39;99547.72;;;11.19;56.71
80482;BME280;69797;43.864;21.410;2023-12-20T11:03:11;99549.59;;;11.31;56.67
80482;BME280;69797;43.864;21.410;2023-12-20T11:05:49;99571.13;;;11.50;59.14
80482;BME280;69797;43.864;21.410;2023-12-20T11:14:16;99547.09;;;11.69;57.12
80482;BME280;69797;43.864;21.410;2023-12-20T11:16:45;99560.75;;;11.81;56.50
80482;BME280;69797;43.864;21.410;2023-12-20T11:19:20;99550.25;;;11.90;55.35
80482;BME280;69797;43.864;21.410;2023-12-20T11:21:47;99531.03;;;11.90;55.26
80482;BME280;69797;43.864;21.410;2023-12-20T11:24:15;99564.44;;;12.15;55.75
80482;BME280;69797;43.864;21.410;2023-12-20T11:26:47;99548.03;;;12.20;55.45
80482;BME280;69797;43.864;21.410;2023-12-20T11:29:35;99549.31;;;12.30;54.63
80482;BME280;69797;43.864;21.410;2023-12-20T11:32:03;99537.16;;;12.26;55.82
80482;BME280;69797;43.864;21.410;2023-12-20T11:35:39;99532.34;;;12.33;53.76
80482;BME280;69797;43.864;21.410;2023-12-20T11:37:41;99513.34;;;12.31;54.04
80482;BME280;69797;43.864;21.410;2023-12-20T11:40:14;99528.16;;;12.47;54.39
80482;BME280;69797;43.864;21.410;2023-12-20T11:42:43;99518.00;;;12.47;54.19
80482;BME280;69797;43.864;21.410;2023-12-20T11:45:13;99523.06;;;12.56;53.75
80482;BME280;69797;43.864;21.410;2023-12-20T11:47:46;99515.75;;;12.61;53.70
80482;BME280;69797;43.864;21.410;2023-12-20T11:50:14;99525.47;;;12.69;53.19
80482;BME280;69797;43.864;21.410;2023-12-20T11:52:41;99510.81;;;12.63;54.62
80482;BME280;69797;43.864;21.410;2023-12-20T11:55:08;99504.94;;;12.55;53.71
80482;BME280;69797;43.864;21.410;2023-12-20T11:57:36;99496.03;;;12.47;53.67
80482;BME280;69797;43.864;21.410;2023-12-20T12:00:03;99508.00;;;12.58;74.01
80482;BME280;69797;43.864;21.410;2023-12-20T12:02:30;99502.72;;;12.73;54.28
80482;BME280;69797;43.864;21.410;2023-12-20T12:04:59;99510.19;;;12.78;54.06
80482;BME280;69797;43.864;21.410;2023-12-20T12:07:26;99492.94;;;12.61;52.83
80482;BME280;69797;43.864;21.410;2023-12-20T12:09:52;99482.97;;;12.38;54.21
80482;BME280;69797;43.864;21.410;2023-12-20T12:12:20;99494.94;;;12.32;53.18
80482;BME280;69797;43.864;21.410;2023-12-20T12:14:47;99488.78;;;12.24;52.34
80482;BME280;69797;43.864;21.410;2023-12-20T12:17:15;99494.53;;;12.23;53.28
80482;BME280;69797;43.864;21.410;2023-12-20T12:19:42;99496.47;;;12.22;51.23
80482;BME280;69797;43.864;21.410;2023-12-20T12:22:12;99485.03;;;12.14;53.07
80482;BME280;69797;43.864;21.410;2023-12-20T12:24:42;99473.72;;;12.10;52.97
80482;BME280;69797;43.864;21.410;2023-12-20T12:27:11;99485.72;;;12.21;51.85
80482;BME280;69797;43.864;21.410;2023-12-20T12:29:38;99473.72;;;12.10;51.43
80482;BME280;69797;43.864;21.410;2023-12-20T12:32:07;99472.91;;;11.93;52.11
80482;BME280;69797;43.864;21.410;2023-12-20T12:34:35;99460.78;;;11.77;52.51
80482;BME280;69797;43.864;21.410;2023-12-20T12:37:03;99462.09;;;11.74;53.08
80482;BME280;69797;43.864;21.410;2023-12-20T12:39:30;99453.72;;;11.64;52.45
80482;BME280;69797;43.864;21.410;2023-12-20T12:41:57;99471.22;;;11.63;52.68
80482;BME280;69797;43.864;21.410;2023-12-20T12:44:24;99463.66;;;11.53;52.54
80482;BME280;69797;43.864;21.410;2023-12-20T12:46:52;99454.75;;;11.46;52.85
80482;BME280;69797;43.864;21.410;2023-12-20T12:49:20;99450.94;;;11.47;53.06
80482;BME280;69797;43.864;21.410;2023-12-20T12:51:48;99440.13;;;11.41;53.96
80482;BME280;69797;43.864;21.410;2023-12-20T12:54:15;99442.03;;;11.40;52.43
80482;BME280;69797;43.864;21.410;2023-12-20T12:56:44;99461.66;;;11.49;53.69
80482;BME280;69797;43.864;21.410;2023-12-20T12:59:11;99453.81;;;11.41;53.89
80482;BME280;69797;43.864;21.410;2023-12-20T13:01:38;99437.28;;;11.36;54.34
80482;BME280;69797;43.864;21.410;2023-12-20T13:04:06;99442.78;;;11.36;54.00